Time;durP1;ratioP1;P1;durP2;ratioP2;P2;SDS_P1;SDS_P2;PMS_P1;PMS_P2;Temp;Humidity;BMP_temperature;BMP_pressure;BME280_temperature;BME280_humidity;BME280_pressure;Samples;Min_cycle;Max_cycle;Signal;HPM_P1;HPM_P2
2022/07/16 00:03:47;;;;;;;3.35;2.47;;;;;;;19.89;59.81;64055.19;5027120;28;20212;-76
2022/07/16 00:06:14;;;;;;;3.97;2.45;;;;;;;19.74;61.06;64044.19;5030200;28;20214;-74
2022/07/16 00:08:41;;;;;;;5.68;2.40;;;;;;;19.63;61.35;64030.66;5026875;28;20297;-76
2022/07/16 00:11:08;;;;;;;2.30;2.20;;;;;;;19.61;62.01;64028.03;5024300;28;20237;-75
2022/07/16 00:13:35;;;;;;;2.38;2.28;;;;;;;19.62;60.95;64027.03;5023273;28;20510;-74
2022/07/16 00:16:02;;;;;;;1.80;1.70;;;;;;;19.57;60.94;64024.38;5023345;28;20438;-75
2022/07/16 00:21:15;;;;;;;1.98;1.88;;;;;;;19.51;60.97;64018.13;5023710;28;20236;-75
2022/07/16 00:23:42;;;;;;;1.63;1.52;;;;;;;19.47;61.03;64011.91;5023734;28;20205;-75
2022/07/16 00:26:08;;;;;;;2.00;1.88;;;;;;;19.54;59.74;64023.84;5024321;28;20272;-75
2022/07/16 00:28:35;;;;;;;2.15;2.05;;;;;;;19.53;59.87;64020.22;5023080;28;20198;-75
2022/07/16 00:31:03;;;;;;;1.80;1.70;;;;;;;19.47;60.36;64013.97;5023442;28;20406;-74
2022/07/16 00:33:30;;;;;;;9.65;2.40;;;;;;;19.52;61.46;64019.69;5022836;28;20258;-75
2022/07/16 00:35:56;;;;;;;1.60;1.50;;;;;;;19.42;61.08;64011.84;5023050;28;20237;-75
2022/07/16 00:38:25;;;;;;;3.17;1.75;;;;;;;19.34;60.71;63997.81;5023654;28;20201;-75
2022/07/16 00:40:51;;;;;;;2.00;1.90;;;;;;;19.35;59.66;64001.97;5022739;28;20218;-74
2022/07/16 00:43:19;;;;;;;1.77;1.70;;;;;;;19.34;60.56;64006.09;5022453;28;20191;-74
2022/07/16 00:45:46;;;;;;;2.33;1.90;;;;;;;19.36;59.39;64005.59;5022880;28;20272;-74
2022/07/16 00:48:13;;;;;;;2.20;1.83;;;;;;;19.44;59.78;64008.25;5023002;28;20202;-75
2022/07/16 00:50:41;;;;;;;1.75;1.65;;;;;;;19.55;59.07;64022.31;5022736;28;20229;-74
2022/07/16 00:53:10;;;;;;;1.48;1.38;;;;;;;19.54;58.75;64026.44;5023432;28;20198;-75
2022/07/16 00:55:39;;;;;;;2.45;1.77;;;;;;;19.61;59.26;64028.03;5022677;28;20244;-75
2022/07/16 00:58:06;;;;;;;4.85;1.80;;;;;;;19.70;59.05;64040.00;5023260;28;20198;-74
2022/07/16 01:00:33;;;;;;;2.08;1.98;;;;;;;19.70;59.11;64034.84;5022662;28;20585;-75
2022/07/16 01:03:01;;;;;;;4.88;2.28;;;;;;;19.74;59.17;64042.13;5023251;28;20206;-75
2022/07/16 01:05:28;;;;;;;3.17;2.10;;;;;;;19.66;58.92;64033.25;5022694;28;20201;-74
2022/07/16 01:07:56;;;;;;;2.13;1.83;;;;;;;19.71;58.83;64035.91;5022973;28;20194;-75
2022/07/16 01:10:24;;;;;;;2.90;1.77;;;;;;;19.73;59.11;64035.38;5021445;28;20202;-74
2022/07/16 01:12:52;;;;;;;2.35;1.60;;;;;;;19.77;59.35;64044.72;5023264;28;20206;-75
2022/07/16 01:15:19;;;;;;;3.78;1.73;;;;;;;19.77;59.20;64047.31;5022318;28;20226;-74
2022/07/16 01:17:46;;;;;;;1.60;1.60;;;;;;;19.79;59.37;64052.50;5021420;28;20202;-76
2022/07/16 01:20:13;;;;;;;1.70;1.70;;;;;;;19.79;59.58;64046.81;5022613;28;20221;-76
2022/07/16 01:22:40;;;;;;;1.70;1.60;;;;;;;19.72;59.84;64037.47;5022817;28;20403;-75
2022/07/16 01:25:11;;;;;;;2.00;1.48;;;;;;;19.71;60.03;64038.47;5022326;28;20507;-75
2022/07/16 01:27:39;;;;;;;1.60;1.50;;;;;;;19.69;60.42;64036.41;5022187;28;20237;-75
2022/07/16 01:30:09;;;;;;;1.88;1.77;;;;;;;19.63;61.08;64030.66;5022499;28;20213;-74
2022/07/16 01:32:36;;;;;;;1.77;1.60;;;;;;;19.60;60.86;64027.53;5025769;28;20506;-74
2022/07/16 01:35:04;;;;;;;1.45;1.45;;;;;;;19.62;61.41;64029.63;5025405;28;20459;-76
2022/07/16 01:37:31;;;;;;;1.90;1.80;;;;;;;19.51;61.33;64013.50;5025436;28;20228;-73
2022/07/16 01:39:58;;;;;;;1.65;1.52;;;;;;;19.53;60.31;64023.31;5025963;28;20245;-76
2022/07/16 01:42:26;;;;;;;2.05;1.85;;;;;;;19.50;60.42;64017.09;5025691;28;20237;-75
2022/07/16 01:44:54;;;;;;;1.67;1.58;;;;;;;19.53;62.59;64020.72;5025109;28;20265;-75
2022/07/16 01:47:21;;;;;;;2.65;1.90;;;;;;;19.48;61.28;64015.00;5025629;28;20281;-74
2022/07/16 01:49:48;;;;;;;1.50;1.50;;;;;;;19.46;61.08;64016.03;5025675;28;20203;-74
2022/07/16 01:52:16;;;;;;;1.48;1.48;;;;;;;19.51;60.84;64016.09;5026394;28;20222;-74
2022/07/16 01:54:46;;;;;;;1.95;1.85;;;;;;;19.43;61.05;64012.88;5024855;28;20521;-75
2022/07/16 01:57:13;;;;;;;1.73;1.63;;;;;;;19.42;61.43;64009.28;5025185;28;20585;-76
2022/07/16 01:59:42;;;;;;;2.00;1.90;;;;;;;19.32;62.38;63993.16;5025343;28;20526;-74
2022/07/16 02:02:10;;;;;;;2.13;1.95;;;;;;;19.25;63.86;63986.38;5025436;28;20236;-74
2022/07/16 02:04:37;;;;;;;1.92;1.83;;;;;;;19.22;63.83;63987.88;5025361;28;20261;-75
2022/07/16 02:07:04;;;;;;;1.75;1.63;;;;;;;19.14;64.86;63980.03;5025402;28;20556;-75
2022/07/16 02:09:31;;;;;;;1.67;1.67;;;;;;;19.06;64.49;63971.72;5025545;28;20206;-75
2022/07/16 02:11:57;;;;;;;2.25;1.67;;;;;;;18.98;64.33;63965.94;5025225;28;20238;-75
2022/07/16 02:14:24;;;;;;;3.15;2.00;;;;;;;18.97;64.56;63961.81;5025230;28;20208;-74
2022/07/16 02:16:53;;;;;;;2.00;1.90;;;;;;;18.95;64.91;63960.25;5025479;28;20295;-75
2022/07/16 02:19:20;;;;;;;1.60;1.60;;;;;;;18.95;66.14;63960.25;5025405;28;20538;-74
2022/07/16 02:21:47;;;;;;;1.52;1.52;;;;;;;18.86;66.12;63950.34;5024354;28;20241;-74
2022/07/16 02:24:14;;;;;;;1.90;1.80;;;;;;;18.92;66.00;63951.44;5025321;28;20198;-75
2022/07/16 02:26:41;;;;;;;1.90;1.80;;;;;;;18.92;65.67;63954.00;5025008;28;20222;-75
2022/07/16 02:29:08;;;;;;;2.40;2.30;;;;;;;18.98;66.34;63960.28;5025368;28;20213;-75
2022/07/16 02:31:35;;;;;;;2.08;1.98;;;;;;;18.90;66.77;63955.03;5024496;28;20218;-75
2022/07/16 02:34:03;;;;;;;3.42;3.22;;;;;;;18.89;67.64;63948.31;5025093;28;20217;-76
2022/07/16 02:36:30;;;;;;;3.55;2.40;;;;;;;18.85;67.89;63944.66;5024555;28;20538;-76
2022/07/16 02:38:56;;;;;;;1.98;1.85;;;;;;;18.80;68.99;63944.59;5024829;28;20205;-75
2022/07/16 02:41:23;;;;;;;4.30;2.33;;;;;;;18.79;69.33;63940.47;5024865;28;20518;-75
2022/07/16 02:43:50;;;;;;;2.55;2.40;;;;;;;18.77;69.81;63938.91;5024028;28;20237;-74
2022/07/16 02:46:17;;;;;;;3.22;2.03;;;;;;;18.70;69.82;63931.09;5024706;28;20229;-74
2022/07/16 02:48:44;;;;;;;1.95;1.58;;;;;;;18.50;70.44;63910.25;5024506;28;20205;-75
2022/07/16 02:51:12;;;;;;;1.98;1.88;;;;;;;18.42;70.33;63899.84;5024974;28;20226;-75
2022/07/16 02:53:39;;;;;;;3.55;1.80;;;;;;;18.36;69.87;63893.59;5025159;28;20365;-76
2022/07/16 02:56:06;;;;;;;1.60;1.52;;;;;;;18.35;68.90;63898.22;5024336;28;20420;-75
2022/07/16 02:58:33;;;;;;;1.88;1.60;;;;;;;18.34;68.57;63897.16;5023948;28;20209;-74
2022/07/16 03:01:01;;;;;;;1.90;1.80;;;;;;;18.40;67.57;63903.44;5024461;28;20451;-75
2022/07/16 03:03:28;;;;;;;2.00;1.90;;;;;;;18.42;66.47;63905.00;5024940;28;20377;-74
2022/07/16 03:05:55;;;;;;;2.00;1.90;;;;;;;18.46;65.83;63906.06;5025155;28;20448;-75
2022/07/16 03:08:23;;;;;;;2.80;1.98;;;;;;;18.43;66.21;63901.41;5025708;28;20236;-74
2022/07/16 03:10:50;;;;;;;1.95;1.85;;;;;;;18.51;67.10;63911.81;5025360;28;20221;-75
2022/07/16 03:13:17;;;;;;;2.40;2.30;;;;;;;18.58;66.37;63916.00;5024349;28;20197;-75
2022/07/16 03:15:44;;;;;;;1.92;1.85;;;;;;;18.54;68.39;63914.41;5023613;28;20245;-74
2022/07/16 03:18:11;;;;;;;1.80;1.70;;;;;;;18.48;69.21;63908.69;5024475;28;20204;-75
2022/07/16 03:20:38;;;;;;;2.38;1.50;;;;;;;18.58;68.71;63918.56;5024004;28;20294;-76
2022/07/16 03:23:05;;;;;;;1.95;1.80;;;;;;;18.58;70.13;63916.53;5024525;28;20281;-74
2022/07/16 03:25:33;;;;;;;2.00;1.90;;;;;;;18.61;70.47;63919.66;5023647;28;20214;-75
2022/07/16 03:28:00;;;;;;;2.22;2.05;;;;;;;18.66;69.28;63927.44;5024067;28;20379;-76
2022/07/16 03:30:27;;;;;;;1.92;1.92;;;;;;;18.68;69.11;63926.94;5023717;28;20537;-75
2022/07/16 03:32:54;;;;;;;2.50;1.98;;;;;;;18.75;68.98;63938.88;5024309;28;20362;-74
2022/07/16 03:35:21;;;;;;;1.85;1.75;;;;;;;18.80;68.39;63944.06;5023286;28;20206;-74
2022/07/16 03:40:34;;;;;;;1.90;1.80;;;;;;;18.92;70.44;63954.53;5024107;28;20236;-75
2022/07/16 03:43:01;;;;;;;1.73;1.63;;;;;;;18.87;72.09;63951.91;5023562;28;20244;-75
2022/07/16 03:45:28;;;;;;;1.65;1.65;;;;;;;18.89;73.13;63951.41;5024131;28;20268;-74
2022/07/16 03:47:55;;;;;;;2.47;2.30;;;;;;;18.97;72.66;63962.31;5024656;28;20198;-75
2022/07/16 03:50:23;;;;;;;2.78;2.67;;;;;;;19.02;72.02;63967.53;5024888;28;20202;-74
2022/07/16 03:52:50;;;;;;;3.25;3.05;;;;;;;19.08;71.49;63970.69;5024619;28;20202;-75
2022/07/16 03:55:17;;;;;;;2.60;2.42;;;;;;;19.17;70.84;63980.09;5024722;28;20202;-75
2022/07/16 03:57:45;;;;;;;2.20;2.10;;;;;;;19.21;72.02;63987.34;5025453;28;20202;-74
2022/07/16 04:00:14;;;;;;;2.22;2.08;;;;;;;19.29;72.38;63993.09;5029365;28;20227;-75
2022/07/16 04:02:41;;;;;;;3.10;2.28;;;;;;;19.39;72.51;64005.63;5024025;28;20198;-75
2022/07/16 04:05:09;;;;;;;2.67;2.08;;;;;;;19.39;72.00;64003.03;5028008;28;20206;-74
2022/07/16 04:07:37;;;;;;;2.20;2.10;;;;;;;19.71;72.55;64036.41;5027140;28;20249;-75
2022/07/16 04:10:10;;;;;;;1.75;1.75;;;;;;;19.84;71.70;64049.97;5031169;28;20205;-75
2022/07/16 04:12:43;;;;;;;2.53;1.90;;;;;;;20.05;69.41;64069.28;5030174;28;20264;-75
2022/07/16 04:15:21;;;;;;;2.38;1.77;;;;;;;20.21;64.07;64093.75;5026729;28;20202;-74
2022/07/16 04:17:49;;;;;;;2.15;2.00;;;;;;;20.34;68.51;64101.63;5025886;28;20236;-75
2022/07/16 04:20:15;;;;;;;2.00;1.90;;;;;;;20.46;71.25;64114.16;5025923;28;20198;-74
2022/07/16 04:22:47;;;;;;;2.00;1.90;;;;;;;20.43;77.73;64114.13;5027389;28;20265;-75
2022/07/16 04:25:19;;;;;;;3.28;2.25;;;;;;;20.39;78.15;64104.28;5030384;28;20262;-74
2022/07/16 04:27:46;;;;;;;2.63;1.98;;;;;;;20.43;81.78;64108.44;5025182;28;20202;-75
2022/07/16 04:30:15;;;;;;;2.92;2.30;;;;;;;20.23;82.93;64090.69;5022492;28;20490;-75
2022/07/16 04:32:42;;;;;;;4.95;3.20;;;;;;;20.12;78.62;64084.34;5022948;28;20198;-74
2022/07/16 04:35:12;;;;;;;4.30;3.53;;;;;;;20.20;78.66;64084.97;5022910;28;20226;-75
2022/07/16 04:37:39;;;;;;;4.28;3.42;;;;;;;20.40;75.35;64110.47;5022486;28;20241;-74
2022/07/16 04:40:08;;;;;;;12.13;3.90;;;;;;;20.52;74.96;64120.94;5022739;28;20197;-75
2022/07/16 04:42:37;;;;;;;8.48;3.50;;;;;;;20.69;73.25;64136.09;5022996;28;20198;-75
2022/07/16 04:45:05;;;;;;;4.78;3.70;;;;;;;20.72;73.20;64149.06;5022733;28;20245;-75
2022/07/16 04:47:33;;;;;;;3.72;3.50;;;;;;;20.83;73.41;64152.28;5022243;28;20304;-75
2022/07/16 04:50:00;;;;;;;6.03;4.15;;;;;;;20.90;73.32;64157.50;5023130;28;20222;-75
2022/07/16 04:52:30;;;;;;;4.32;3.90;;;;;;;20.52;75.52;64120.94;5022847;28;20224;-75
2022/07/16 04:54:57;;;;;;;6.85;4.18;;;;;;;20.34;77.42;64102.16;5023219;28;20205;-73
2022/07/16 04:57:24;;;;;;;4.18;3.88;;;;;;;20.18;78.45;64090.63;5022974;28;20272;-75
2022/07/16 04:59:51;;;;;;;4.00;3.50;;;;;;;20.12;78.99;64086.94;5024260;28;20221;-75
2022/07/16 05:05:05;;;;;;;3.83;3.53;;;;;;;20.18;77.55;64084.94;5024009;28;20213;-75
2022/07/16 05:07:32;;;;;;;9.38;3.65;;;;;;;20.44;76.39;64114.66;5026691;28;20505;-74
2022/07/16 05:09:59;;;;;;;4.22;3.83;;;;;;;20.52;74.95;64118.34;5026909;28;20273;-77
2022/07/16 05:12:26;;;;;;;3.67;3.33;;;;;;;20.49;74.98;64120.41;5025943;28;20293;-75
2022/07/16 05:14:53;;;;;;;3.50;3.20;;;;;;;20.64;74.62;64132.94;5026358;28;20244;-76
2022/07/16 05:17:29;;;;;;;5.35;3.42;;;;;;;20.69;74.57;64138.19;5026950;28;20474;-76
2022/07/16 05:19:56;;;;;;;3.70;3.40;;;;;;;20.82;78.75;64149.16;5027759;28;20244;-75
2022/07/16 05:22:24;;;;;;;3.17;2.90;;;;;;;20.92;73.83;64159.59;5027972;28;20226;-73
2022/07/16 05:24:51;;;;;;;7.10;3.95;;;;;;;20.93;73.01;64165.81;5027362;28;20208;-75
2022/07/16 05:27:19;;;;;;;5.50;3.85;;;;;;;20.88;73.04;64155.41;5026494;28;20269;-74
2022/07/16 05:29:46;;;;;;;6.05;4.28;;;;;;;20.91;71.86;64160.63;5027291;28;20490;-76
2022/07/16 05:32:13;;;;;;;5.57;4.25;;;;;;;20.95;73.32;64167.91;5027491;28;20245;-76
2022/07/16 05:34:40;;;;;;;9.02;4.50;;;;;;;21.00;72.89;64170.53;5026877;28;20384;-75
2022/07/16 05:37:07;;;;;;;4.57;4.13;;;;;;;21.10;73.36;64177.88;5025613;28;20280;-75
2022/07/16 05:39:35;;;;;;;8.52;4.38;;;;;;;21.20;73.14;64190.91;5026585;28;20232;-75
2022/07/16 05:42:02;;;;;;;12.88;4.60;;;;;;;21.28;74.19;64196.66;5026048;28;20446;-75
2022/07/16 05:44:29;;;;;;;6.70;4.18;;;;;;;21.47;72.91;64224.28;5025519;28;20210;-75
2022/07/16 05:46:56;;;;;;;8.13;4.25;;;;;;;21.65;73.07;64237.91;5025864;28;20523;-76
2022/07/16 05:49:26;;;;;;;7.85;3.97;;;;;;;21.73;71.51;64246.28;5027960;28;20253;-76
2022/07/16 05:51:53;;;;;;;14.48;4.50;;;;;;;21.87;70.78;64260.94;5028831;28;20222;-74
2022/07/16 05:54:20;;;;;;;9.48;4.55;;;;;;;21.87;69.23;64263.00;5026745;28;20198;-75
2022/07/16 05:56:49;;;;;;;4.43;4.03;;;;;;;22.03;67.58;64277.13;5026354;28;20291;-75
2022/07/16 05:59:15;;;;;;;6.03;3.65;;;;;;;22.02;67.80;64281.28;5027005;28;20221;-76
2022/07/16 06:01:49;;;;;;;7.18;4.00;;;;;;;22.04;66.44;64283.38;5030342;28;20228;-75
2022/07/16 06:04:17;;;;;;;6.95;3.33;;;;;;;22.13;67.35;64287.56;5030186;28;20201;-75
2022/07/16 06:06:44;;;;;;;4.53;3.95;;;;;;;21.92;66.04;64265.63;5029426;28;20224;-76
2022/07/16 06:09:10;;;;;;;7.03;4.10;;;;;;;22.18;65.44;64293.31;5025487;28;20501;-76
2022/07/16 06:11:38;;;;;;;7.03;3.70;;;;;;;22.39;64.75;64317.34;5026157;28;20222;-75
2022/07/16 06:14:06;;;;;;;5.60;3.60;;;;;;;22.33;65.13;64311.06;5027633;28;20341;-75
2022/07/16 06:16:33;;;;;;;5.28;3.58;;;;;;;22.44;63.06;64325.69;5026356;28;20261;-74
2022/07/16 06:19:00;;;;;;;5.82;4.53;;;;;;;22.40;62.93;64315.81;5026050;28;20237;-76
2022/07/16 06:21:27;;;;;;;7.10;3.83;;;;;;;22.69;62.86;64348.72;5025682;28;20218;-75
2022/07/16 06:23:54;;;;;;;9.27;3.85;;;;;;;22.78;62.95;64358.66;5025484;28;20202;-76
2022/07/16 06:26:21;;;;;;;5.20;3.45;;;;;;;22.86;62.31;64366.50;5024875;28;20227;-75
2022/07/16 06:28:48;;;;;;;9.63;4.07;;;;;;;22.81;62.30;64356.59;5025178;28;20257;-75
2022/07/16 06:31:16;;;;;;;3.92;3.20;;;;;;;22.81;61.07;64361.28;5024652;28;20284;-74
2022/07/16 06:33:43;;;;;;;4.15;3.85;;;;;;;22.87;62.50;64368.06;5024505;28;20261;-76
2022/07/16 06:36:10;;;;;;;6.30;4.10;;;;;;;22.99;60.87;64380.09;5025695;28;20221;-75
2022/07/16 06:38:37;;;;;;;6.03;4.10;;;;;;;23.10;60.58;64388.47;5025804;28;20541;-76
2022/07/16 06:41:04;;;;;;;7.28;3.92;;;;;;;23.22;59.09;64404.16;5025616;28;20241;-75
2022/07/16 06:43:31;;;;;;;5.03;3.88;;;;;;;23.36;60.53;64418.28;5025482;28;20244;-76
2022/07/16 06:45:58;;;;;;;4.63;3.70;;;;;;;23.56;59.52;64436.63;5025052;28;20264;-76
2022/07/16 06:48:26;;;;;;;3.70;3.40;;;;;;;23.55;59.39;64438.16;5025084;28;20497;-76
2022/07/16 06:50:53;;;;;;;6.25;3.50;;;;;;;23.75;59.45;64459.63;5024930;28;20218;-74
2022/07/16 06:53:20;;;;;;;4.38;3.85;;;;;;;23.69;57.89;64455.44;5022698;28;20213;-76
2022/07/16 06:55:47;;;;;;;3.80;3.50;;;;;;;23.70;57.88;64449.19;5025320;28;20530;-76
2022/07/16 06:58:14;;;;;;;5.00;4.22;;;;;;;23.71;60.10;64457.53;5024616;28;20309;-76
2022/07/16 07:00:41;;;;;;;6.65;4.95;;;;;;;23.74;58.38;64460.66;5025639;28;20350;-76
2022/07/16 07:03:08;;;;;;;4.35;3.65;;;;;;;23.67;59.28;64446.06;5025655;28;20252;-76
2022/07/16 07:05:36;;;;;;;6.03;4.07;;;;;;;23.84;59.64;64471.66;5022996;28;20214;-76
2022/07/16 07:08:04;;;;;;;9.77;4.45;;;;;;;23.97;58.32;64479.50;5025193;28;20202;-74
2022/07/16 07:10:30;;;;;;;5.03;3.85;;;;;;;23.91;58.29;64478.44;5023523;28;20226;-75
2022/07/16 07:12:57;;;;;;;4.65;4.22;;;;;;;23.92;57.84;64477.41;5025098;28;20499;-75
2022/07/16 07:15:25;;;;;;;3.88;3.53;;;;;;;23.97;57.05;64482.13;5027404;28;20285;-75
2022/07/16 07:17:52;;;;;;;5.15;4.10;;;;;;;24.03;58.96;64485.81;5028272;28;20233;-76
2022/07/16 07:20:19;;;;;;;8.45;4.18;;;;;;;24.18;56.77;64506.72;5011690;28;20242;-74
2022/07/16 07:22:51;;;;;;;5.15;4.18;;;;;;;24.25;55.89;64511.44;5025378;28;20205;-76
2022/07/16 07:25:18;;;;;;;4.50;4.10;;;;;;;24.52;56.21;64544.41;5025058;28;20221;-74
2022/07/16 07:27:45;;;;;;;4.05;3.75;;;;;;;24.72;54.50;64562.75;5024227;28;20212;-75
2022/07/16 07:30:19;;;;;;;5.72;3.72;;;;;;;24.92;53.91;64581.09;5023864;28;20396;-75
2022/07/16 07:32:46;;;;;;;3.97;3.67;;;;;;;24.90;53.90;64579.53;5024682;28;20265;-75
2022/07/16 07:35:13;;;;;;;4.38;3.72;;;;;;;25.05;53.52;64592.13;5022960;28;20245;-75
2022/07/16 07:37:40;;;;;;;5.35;3.63;;;;;;;24.89;54.29;64578.47;5022167;28;20229;-76
2022/07/16 07:40:10;;;;;;;6.82;4.32;;;;;;;25.07;54.25;64594.22;5020234;28;20236;-76
2022/07/16 07:42:37;;;;;;;4.07;3.78;;;;;;;24.97;54.91;64589.47;5024158;28;20526;-75
2022/07/16 07:45:05;;;;;;;7.72;4.28;;;;;;;24.90;55.85;64582.13;5022927;28;20501;-73
2022/07/16 07:47:32;;;;;;;4.15;3.78;;;;;;;25.13;55.02;64603.63;5018973;28;20233;-73
2022/07/16 07:50:00;;;;;;;4.78;3.60;;;;;;;25.34;54.48;64625.09;5019594;28;20198;-74
2022/07/16 07:52:27;;;;;;;5.65;4.15;;;;;;;25.36;54.74;64624.06;5021998;28;20527;-73
2022/07/16 07:54:54;;;;;;;3.70;3.40;;;;;;;25.32;54.42;64625.59;5022475;28;20194;-73
2022/07/16 07:57:22;;;;;;;4.45;3.85;;;;;;;25.30;56.17;64615.16;5020256;28;20230;-72
2022/07/16 07:59:49;;;;;;;5.03;3.85;;;;;;;25.32;57.14;64622.47;5023255;28;20216;-72
2022/07/16 08:02:16;;;;;;;4.18;3.88;;;;;;;25.44;56.07;64635.59;5023805;28;20225;-72
2022/07/16 08:04:43;;;;;;;6.75;4.25;;;;;;;25.33;55.61;64623.53;5022802;28;20202;-73
2022/07/16 08:07:10;;;;;;;6.03;3.22;;;;;;;25.42;55.72;64632.97;5022025;28;20214;-74
2022/07/16 08:09:38;;;;;;;6.43;3.83;;;;;;;25.51;55.18;64645.53;5022370;28;20198;-74
2022/07/16 08:12:05;;;;;;;4.28;4.07;;;;;;;25.68;53.45;64662.84;5024417;28;20217;-74
2022/07/16 08:14:33;;;;;;;6.45;3.72;;;;;;;25.60;53.26;64649.75;5020614;28;20237;-73
2022/07/16 08:17:00;;;;;;;6.53;4.40;;;;;;;25.62;54.04;64656.53;5021902;28;20256;-73
2022/07/16 08:19:27;;;;;;;5.20;3.55;;;;;;;25.98;51.99;64694.28;5023054;28;20249;-73
2022/07/16 08:21:55;;;;;;;4.15;3.55;;;;;;;26.02;51.19;64696.38;5021105;28;20232;-73
2022/07/16 08:27:10;;;;;;;7.72;3.70;;;;;;;26.10;50.69;64704.25;5024246;28;20217;-73
2022/07/16 08:29:38;;;;;;;4.07;3.47;;;;;;;26.39;49.08;64734.66;5020508;28;20498;-73
2022/07/16 08:32:06;;;;;;;3.58;3.35;;;;;;;26.36;49.62;64733.59;5021574;28;20482;-73
2022/07/16 08:34:33;;;;;;;3.40;3.10;;;;;;;26.53;48.16;64749.34;5019407;28;20288;-73
2022/07/16 08:37:01;;;;;;;3.63;3.30;;;;;;;26.75;48.42;64769.81;5021942;28;20222;-72
2022/07/16 08:39:28;;;;;;;6.40;3.72;;;;;;;26.65;47.39;64764.53;5021855;28;20190;-72
2022/07/16 08:41:56;;;;;;;3.42;3.08;;;;;;;26.46;48.84;64744.09;5024646;28;20283;-72
2022/07/16 08:44:23;;;;;;;4.63;3.45;;;;;;;26.41;48.94;64736.22;5026342;28;20202;-73
2022/07/16 08:46:53;;;;;;;5.47;4.28;;;;;;;26.35;47.64;64735.16;5026456;28;20558;-72
2022/07/16 08:49:21;;;;;;;5.72;3.45;;;;;;;26.46;49.06;64744.09;5025834;28;20205;-73
2022/07/16 08:51:49;;;;;;;3.78;3.47;;;;;;;26.38;47.73;64733.63;5024753;28;20277;-74
2022/07/16 08:54:19;;;;;;;3.45;3.22;;;;;;;26.46;47.53;64742.00;5027057;28;20194;-74
2022/07/16 08:56:47;;;;;;;4.57;3.13;;;;;;;26.50;47.70;64750.91;5027133;28;20218;-73
2022/07/16 08:59:14;;;;;;;4.80;3.80;;;;;;;26.46;47.83;64742.00;5025951;28;20362;-75
2022/07/16 09:01:42;;;;;;;3.95;3.55;;;;;;;26.72;47.09;64769.28;5026277;28;20214;-73
2022/07/16 09:04:10;;;;;;;3.58;3.38;;;;;;;26.91;46.80;64791.31;5027847;28;20362;-76
2022/07/16 09:06:37;;;;;;;6.10;4.00;;;;;;;27.01;46.67;64801.78;5027500;28;20274;-77
2022/07/16 09:09:04;;;;;;;3.78;3.22;;;;;;;27.23;45.01;64820.16;5025525;28;20507;-74
2022/07/16 09:11:34;;;;;;;3.90;3.50;;;;;;;27.38;44.96;64842.72;5026842;28;20214;-74
2022/07/16 09:14:04;;;;;;;6.43;3.60;;;;;;;27.39;45.02;64841.69;5025822;28;20194;-74
2022/07/16 09:16:33;;;;;;;6.88;3.60;;;;;;;27.44;46.54;64841.69;5023246;28;20216;-74
2022/07/16 09:19:11;;;;;;;3.72;3.28;;;;;;;27.56;45.08;64854.28;5026702;28;20236;-74
2022/07/16 09:21:59;;;;;;;4.30;2.90;;;;;;;27.43;43.01;64842.72;5028772;28;20222;-74
2022/07/16 09:24:35;;;;;;;3.42;3.33;;;;;;;27.66;42.76;64867.41;5029911;28;20483;-75
2022/07/16 09:27:04;;;;;;;4.38;3.10;;;;;;;27.87;42.45;64891.53;5025805;28;20289;-75
2022/07/16 09:29:34;;;;;;;3.28;3.10;;;;;;;27.88;42.48;64889.97;5025944;28;20194;-74
2022/07/16 09:32:01;;;;;;;3.40;3.20;;;;;;;27.95;42.30;64900.47;5025622;28;20444;-75
2022/07/16 09:34:30;;;;;;;5.32;3.38;;;;;;;28.11;41.91;64914.13;5027666;28;20384;-73
2022/07/16 09:36:58;;;;;;;6.78;3.17;;;;;;;28.17;41.52;64920.41;5024424;28;20226;-74
2022/07/16 09:39:27;;;;;;;2.67;2.58;;;;;;;28.20;43.49;64926.72;5027155;28;20477;-76
2022/07/16 09:41:53;;;;;;;3.28;3.13;;;;;;;28.16;41.33;64919.88;5026841;28;20222;-74
2022/07/16 09:44:22;;;;;;;3.55;3.35;;;;;;;28.13;41.44;64918.84;5027767;28;20220;-74
2022/07/16 09:47:05;;;;;;;4.03;3.53;;;;;;;28.43;40.62;64945.63;5026563;28;20249;-74
2022/07/16 09:49:36;;;;;;;3.25;2.95;;;;;;;28.61;41.19;64971.38;5026967;28;20252;-74
2022/07/16 09:52:04;;;;;;;3.67;3.38;;;;;;;28.37;41.51;64944.06;5025920;28;20455;-74
2022/07/16 09:54:33;;;;;;;3.15;3.05;;;;;;;28.60;40.86;64965.06;5025312;28;20205;-74
2022/07/16 09:57:13;;;;;;;4.22;3.50;;;;;;;28.64;39.57;64969.81;5025848;28;20242;-75
2022/07/16 09:59:40;;;;;;;3.40;3.10;;;;;;;28.56;40.15;64964.00;5008545;28;20203;-74
2022/07/16 10:02:07;;;;;;;4.13;3.72;;;;;;;28.70;40.19;64976.09;5025837;28;20399;-73
2022/07/16 10:04:36;;;;;;;4.50;3.30;;;;;;;28.65;38.46;64970.31;5027834;28;20202;-73
2022/07/16 10:07:03;;;;;;;3.53;3.28;;;;;;;28.34;38.82;64938.25;5018319;28;20416;-74
2022/07/16 10:09:30;;;;;;;6.35;2.83;;;;;;;28.42;38.34;64949.31;5026920;28;20398;-75
2022/07/16 10:12:03;;;;;;;3.53;3.33;;;;;;;28.44;38.85;64946.66;5026534;28;20257;-76
2022/07/16 10:14:33;;;;;;;3.70;3.08;;;;;;;28.60;38.79;64962.97;5025714;28;20439;-76
2022/07/16 10:17:01;;;;;;;3.47;3.28;;;;;;;28.88;40.25;64995.00;5025082;28;20338;-76
2022/07/16 10:19:38;;;;;;;4.05;3.30;;;;;;;29.03;37.21;65013.38;5025233;28;20276;-75
2022/07/16 10:22:21;;;;;;;3.95;3.63;;;;;;;29.11;37.67;65019.16;5023466;28;20247;-75
2022/07/16 10:24:52;;;;;;;3.78;3.47;;;;;;;29.24;37.46;65035.47;5024755;28;20221;-76
2022/07/16 10:27:23;;;;;;;3.40;2.97;;;;;;;29.34;37.03;65040.19;5024681;28;20272;-76
2022/07/16 10:29:50;;;;;;;2.97;2.88;;;;;;;29.03;37.34;65010.75;5025604;28;20197;-76
2022/07/16 10:32:30;;;;;;;3.58;2.90;;;;;;;29.11;36.91;65013.94;5025868;28;20320;-74
2022/07/16 10:35:01;;;;;;;3.50;3.28;;;;;;;29.30;37.13;65041.25;5026303;28;20204;-75
2022/07/16 10:37:33;;;;;;;5.25;2.75;;;;;;;29.32;36.71;65040.72;5024692;28;20596;-75
2022/07/16 10:40:12;;;;;;;3.10;2.65;;;;;;;29.49;36.24;65059.09;5024910;28;20480;-74
2022/07/16 10:42:40;;;;;;;3.50;3.05;;;;;;;29.64;36.61;65073.81;5025448;28;20201;-75
2022/07/16 10:45:13;;;;;;;4.40;3.50;;;;;;;29.69;36.94;65079.63;5029277;28;20194;-77
2022/07/16 10:47:50;;;;;;;4.43;3.22;;;;;;;29.45;37.25;65054.38;5022921;28;20190;-73
2022/07/16 10:50:24;;;;;;;3.60;3.30;;;;;;;29.32;38.58;65040.72;5026570;28;20244;-76
2022/07/16 10:52:55;;;;;;;3.45;3.28;;;;;;;29.42;37.83;65053.84;5027542;28;20209;-76
2022/07/16 10:55:40;;;;;;;7.43;3.58;;;;;;;29.54;36.90;65069.59;5025972;28;20233;-74
2022/07/16 10:58:07;;;;;;;3.13;2.90;;;;;;;29.39;37.49;65051.22;5011160;28;20216;-75
2022/07/16 11:00:34;;;;;;;2.97;2.83;;;;;;;29.54;37.46;65064.34;5025622;28;20238;-75
2022/07/16 11:03:04;;;;;;;4.75;2.80;;;;;;;29.90;37.14;65103.78;5023885;28;20538;-76
2022/07/16 11:05:33;;;;;;;3.60;3.40;;;;;;;30.13;36.12;65125.88;5024349;28;20214;-74
2022/07/16 11:08:18;;;;;;;3.35;3.05;;;;;;;30.18;35.02;65135.84;5028160;28;20239;-75
2022/07/16 11:10:49;;;;;;;5.40;3.00;;;;;;;30.01;36.60;65113.25;5025774;28;20218;-75
2022/07/16 11:13:18;;;;;;;3.00;2.90;;;;;;;29.91;36.41;65102.22;5024408;28;20206;-76
2022/07/16 11:15:46;;;;;;;2.83;2.72;;;;;;;30.03;35.89;65117.97;5025101;28;20291;-76
2022/07/16 11:18:19;;;;;;;4.38;3.20;;;;;;;29.89;36.00;65105.38;5025574;28;20233;-75
2022/07/16 11:20:48;;;;;;;2.85;2.75;;;;;;;29.79;35.16;65092.22;5026247;28;20383;-75
2022/07/16 11:23:15;;;;;;;3.80;3.50;;;;;;;29.96;35.42;65108.00;5025635;28;20226;-77
2022/07/16 11:26:01;;;;;;;6.80;2.97;;;;;;;29.93;34.73;65104.84;5025057;28;20218;-74
2022/07/16 11:28:28;;;;;;;3.40;3.20;;;;;;;29.79;35.21;65089.59;5025066;28;20187;-76
2022/07/16 11:31:03;;;;;;;3.22;3.00;;;;;;;30.08;34.92;65120.09;5023274;28;20225;-76
2022/07/16 11:33:35;;;;;;;5.95;3.53;;;;;;;30.37;35.36;65153.75;5024019;28;20244;-76
2022/07/16 11:36:13;;;;;;;7.65;3.03;;;;;;;29.61;35.79;65071.19;5024242;28;20221;-76
2022/07/16 11:38:41;;;;;;;3.17;2.97;;;;;;;29.67;36.27;65076.97;5017673;28;20230;-75
2022/07/16 11:41:08;;;;;;;3.17;2.97;;;;;;;30.03;35.40;65117.97;5020937;28;20218;-75
2022/07/16 11:43:36;;;;;;;2.85;2.75;;;;;;;30.25;36.75;65143.75;5024330;28;20205;-75
2022/07/16 11:46:03;;;;;;;6.72;3.35;;;;;;;30.40;36.02;65154.28;5023378;28;20221;-76
2022/07/16 11:48:36;;;;;;;3.92;2.97;;;;;;;30.56;36.63;65171.09;5006809;28;20282;-75
2022/07/16 11:51:09;;;;;;;3.92;3.53;;;;;;;30.46;36.71;65165.84;5015277;28;20218;-75
2022/07/16 11:53:37;;;;;;;4.88;4.15;;;;;;;29.96;35.49;65108.00;5006049;28;20228;-75